Time;durP1;ratioP1;P1;durP2;ratioP2;P2;SDS_P1;SDS_P2;PMS_P1;PMS_P2;Temp;Humidity;BMP_temperature;BMP_pressure;BME280_temperature;BME280_humidity;BME280_pressure;Samples;Min_cycle;Max_cycle;Signal;HPM_P1;HPM_P2
2022/09/08 00:00:45;;;;;;;;;;;19.60;97.00;;;;;;6125311;23;19996;-81
2022/09/08 00:03:14;;;;;;;;;;;19.50;97.80;;;;;;6099027;23;19940;-81
2022/09/08 00:05:50;;;;;;;;;;;19.50;98.10;;;;;;6101226;23;19917;-81
2022/09/08 00:08:20;;;;;;;;;;;19.50;98.30;;;;;;6103350;23;20250;-81
2022/09/08 00:10:50;;;;;;;;;;;19.50;98.20;;;;;;6101429;23;19927;-79
2022/09/08 00:13:17;;;;;;;;;;;19.50;97.90;;;;;;6099051;23;19943;-80
2022/09/08 00:15:44;;;;;;;;;;;19.60;97.80;;;;;;6099778;23;20282;-79
2022/09/08 00:18:11;;;;;;;;;;;19.60;97.70;;;;;;6098326;23;19924;-81
2022/09/08 00:20:38;;;;;;;;;;;19.60;97.80;;;;;;6100876;23;19917;-81
2022/09/08 00:23:05;;;;;;;;;;;19.70;97.50;;;;;;6098725;23;19921;-80
2022/09/08 00:25:31;;;;;;;;;;;19.70;97.40;;;;;;6099968;23;19923;-81
2022/09/08 00:27:58;;;;;;;;;;;19.70;97.50;;;;;;6100803;23;19992;-81
2022/09/08 00:30:25;;;;;;;;;;;19.80;97.50;;;;;;6100039;23;19924;-79
2022/09/08 00:32:52;;;;;;;;;;;19.70;97.40;;;;;;6125099;23;19937;-79
2022/09/08 00:35:18;;;;;;;;;;;19.70;97.40;;;;;;6099388;23;20008;-80
2022/09/08 00:37:49;;;;;;;;;;;19.70;97.30;;;;;;6125361;23;19920;-80
2022/09/08 00:40:16;;;;;;;;;;;19.70;97.20;;;;;;6099622;23;19984;-80
2022/09/08 00:42:43;;;;;;;;;;;19.80;97.10;;;;;;6124917;23;19952;-79
2022/09/08 00:45:11;;;;;;;;;;;19.80;97.20;;;;;;6098574;23;20360;-79
2022/09/08 00:47:42;;;;;;;;;;;19.80;97.20;;;;;;6099369;23;20406;-79
2022/09/08 00:50:16;;;;;;;;;;;19.80;97.40;;;;;;6098722;23;19917;-80
2022/09/08 00:52:46;;;;;;;;;;;19.80;97.50;;;;;;6099584;23;19951;-81
2022/09/08 00:55:14;;;;;;;;;;;19.90;97.50;;;;;;6099022;23;19921;-81
2022/09/08 00:57:40;;;;;;;;;;;19.90;97.60;;;;;;6103160;23;20334;-80
2022/09/08 01:00:09;;;;;;;;;;;19.90;97.50;;;;;;6127138;23;19921;-81
2022/09/08 01:02:36;;;;;;;;;;;19.90;98.30;;;;;;6101704;23;19984;-79
2022/09/08 01:05:05;;;;;;;;;;;19.90;98.20;;;;;;6099918;23;20401;-81
2022/09/08 01:13:40;;;;;;;;;;;19.90;98.40;;;;;;6125635;23;20019;-80
2022/09/08 01:16:07;;;;;;;;;;;19.90;98.50;;;;;;6100932;23;20235;-80
2022/09/08 01:18:35;;;;;;;;;;;19.80;98.50;;;;;;6100287;23;20250;-80
2022/09/08 01:21:12;;;;;;;;;;;19.80;98.60;;;;;;6100408;23;19917;-81
2022/09/08 01:23:51;;;;;;;;;;;19.80;98.50;;;;;;6099986;23;19916;-80
2022/09/08 01:26:50;;;;;;;;;;;19.70;98.50;;;;;;6100097;23;19923;-80
2022/09/08 01:29:22;;;;;;;;;;;19.70;98.60;;;;;;6098718;23;19917;-79
2022/09/08 01:32:09;;;;;;;;;;;19.70;98.90;;;;;;6104496;23;20014;-80
2022/09/08 01:34:40;;;;;;;;;;;19.60;99.00;;;;;;6099659;23;21393;-80
2022/09/08 01:37:07;;;;;;;;;;;19.60;99.40;;;;;;6100541;23;19921;-80
2022/09/08 01:39:33;;;;;;;;;;;19.50;99.90;;;;;;6099665;23;19921;-81
2022/09/08 01:42:00;;;;;;;;;;;19.40;99.90;;;;;;6100518;23;19916;-82
2022/09/08 01:44:28;;;;;;;;;;;19.40;99.90;;;;;;6099449;23;19931;-80
2022/09/08 01:46:58;;;;;;;;;;;19.30;99.90;;;;;;6125894;23;20261;-79
2022/09/08 01:49:25;;;;;;;;;;;19.10;99.90;;;;;;6125271;23;20309;-79
2022/09/08 01:51:51;;;;;;;;;;;19.10;99.90;;;;;;6099963;23;19924;-81
2022/09/08 01:54:18;;;;;;;;;;;19.10;99.90;;;;;;6099607;23;19917;-81
2022/09/08 01:56:45;;;;;;;;;;;19.10;99.90;;;;;;6100071;23;19927;-81
2022/09/08 01:59:12;;;;;;;;;;;19.20;99.90;;;;;;6100530;23;20339;-80
2022/09/08 02:01:38;;;;;;;;;;;19.20;99.90;;;;;;6099333;23;19925;-81
2022/09/08 02:04:06;;;;;;;;;;;19.30;99.90;;;;;;6100419;23;19928;-81
2022/09/08 02:06:33;;;;;;;;;;;19.30;99.90;;;;;;6098779;23;19947;-81
2022/09/08 02:08:59;;;;;;;;;;;19.30;99.90;;;;;;6100320;23;19916;-82
2022/09/08 02:11:26;;;;;;;;;;;19.40;99.90;;;;;;6098770;23;20357;-81
2022/09/08 02:13:53;;;;;;;;;;;19.40;99.90;;;;;;6100118;23;20361;-80
2022/09/08 02:16:19;;;;;;;;;;;19.40;99.90;;;;;;6099258;23;20249;-81
2022/09/08 02:18:46;;;;;;;;;;;19.40;99.90;;;;;;6099983;23;20257;-80
2022/09/08 02:21:15;;;;;;;;;;;19.50;99.90;;;;;;6100268;23;20226;-80
2022/09/08 02:23:42;;;;;;;;;;;19.50;99.90;;;;;;6124702;23;19917;-80
2022/09/08 02:26:14;;;;;;;;;;;19.50;99.90;;;;;;6100051;23;20257;-80
2022/09/08 02:28:40;;;;;;;;;;;19.50;99.90;;;;;;6099344;23;19932;-81
2022/09/08 02:31:08;;;;;;;;;;;19.50;99.90;;;;;;6099883;23;19999;-81
2022/09/08 02:33:35;;;;;;;;;;;19.60;99.90;;;;;;6098895;23;20422;-80
2022/09/08 02:36:02;;;;;;;;;;;19.60;99.90;;;;;;6126018;23;19927;-80
2022/09/08 02:38:29;;;;;;;;;;;19.60;99.90;;;;;;6099593;23;20382;-80
2022/09/08 02:40:56;;;;;;;;;;;19.70;99.90;;;;;;6125982;23;20001;-80
2022/09/08 13:43:22;;;;;;;0.10;0.10;;;30.50;48.80;;;;;;6135095;22;2113843;-77
2022/09/08 13:46:14;;;;;;;0.10;0.10;;;30.10;49.40;;;;;;6182631;23;20388;-82
2022/09/08 13:49:04;;;;;;;0.10;0.10;;;30.00;50.80;;;;;;6182973;23;20377;-78
2022/09/08 13:52:08;;;;;;;0.10;0.10;;;30.00;49.80;;;;;;6175967;23;20758;-83
2022/09/08 13:54:53;;;;;;;0.10;0.10;;;30.20;50.20;;;;;;6181094;23;20839;-83
2022/09/08 13:57:42;;;;;;;0.20;0.10;;;30.30;49.20;;;;;;6181865;23;20406;-83
2022/09/08 14:00:12;;;;;;;0.17;0.10;;;30.40;48.30;;;;;;6180987;23;20932;-83
2022/09/08 14:02:39;;;;;;;0.10;0.10;;;30.30;48.60;;;;;;6182950;23;20840;-83
2022/09/08 14:05:20;;;;;;;0.10;0.10;;;30.30;50.30;;;;;;6183002;23;20822;-82
2022/09/08 14:08:14;;;;;;;0.20;0.10;;;30.40;49.60;;;;;;6181706;23;20442;-78
2022/09/08 14:10:41;;;;;;;0.10;0.10;;;30.20;49.30;;;;;;6181714;23;20372;-79
2022/09/08 14:13:10;;;;;;;0.10;0.10;;;30.40;49.60;;;;;;6181965;23;20833;-78
2022/09/08 14:16:18;;;;;;;0.20;0.10;;;30.50;47.70;;;;;;6181726;23;20448;-83
2022/09/08 14:19:12;;;;;;;0.28;0.10;;;30.40;48.70;;;;;;6128167;23;20369;-81
2022/09/08 14:21:48;;;;;;;0.20;0.10;;;30.50;48.70;;;;;;6182413;23;20460;-83
2022/09/08 14:24:36;;;;;;;0.10;0.10;;;30.60;49.90;;;;;;6188205;23;20399;-79
2022/09/08 14:27:35;;;;;;;0.10;0.10;;;30.00;50.00;;;;;;6186563;23;20380;-79
2022/09/08 14:30:21;;;;;;;0.35;0.13;;;29.90;49.20;;;;;;6164654;23;20416;-83
2022/09/08 14:32:57;;;;;;;0.10;0.10;;;29.80;50.30;;;;;;6181389;23;20812;-83
2022/09/08 14:35:38;;;;;;;0.20;0.10;;;29.70;50.50;;;;;;6184707;23;20705;-80
2022/09/08 14:38:31;;;;;;;0.43;0.13;;;29.40;50.30;;;;;;6184931;23;20738;-81
2022/09/08 14:41:08;;;;;;;0.13;0.13;;;29.40;51.10;;;;;;6182921;23;20816;-83
2022/09/08 14:43:47;;;;;;;0.20;0.10;;;29.30;50.70;;;;;;6185300;23;20376;-81
2022/09/08 14:46:44;;;;;;;0.28;0.10;;;28.70;51.60;;;;;;6184431;23;20430;-83
2022/09/08 14:49:17;;;;;;;0.30;0.10;;;28.50;52.00;;;;;;6184319;23;20411;-83
2022/09/08 14:52:09;;;;;;;0.20;0.10;;;28.50;53.90;;;;;;6185934;23;20866;-83
2022/09/08 14:55:01;;;;;;;0.50;0.20;;;28.40;53.10;;;;;;6184549;23;20394;-81
2022/09/08 14:57:38;;;;;;;0.65;0.10;;;28.30;53.00;;;;;;6183629;23;20372;-84
2022/09/08 15:00:13;;;;;;;0.30;0.10;;;28.20;53.80;;;;;;6181330;23;20380;-83
2022/09/08 15:03:03;;;;;;;0.40;0.10;;;28.50;53.90;;;;;;6188977;23;20383;-77
2022/09/08 15:05:33;;;;;;;0.30;0.10;;;28.80;51.40;;;;;;6186553;23;20714;-79
2022/09/08 15:08:07;;;;;;;0.10;0.10;;;29.00;51.20;;;;;;6183599;23;20907;-81
2022/09/08 15:10:37;;;;;;;0.10;0.10;;;28.80;51.20;;;;;;6187400;23;20380;-78
2022/09/08 15:13:34;;;;;;;0.37;0.17;;;28.70;52.40;;;;;;6188201;23;20853;-82
2022/09/08 15:16:28;;;;;;;0.10;0.10;;;28.10;52.30;;;;;;6186922;23;20025;-83
2022/09/08 15:19:04;;;;;;;0.10;0.10;;;27.70;55.00;;;;;;6182196;23;20108;-82
2022/09/08 15:21:52;;;;;;;0.20;0.20;;;27.60;54.60;;;;;;6186816;23;20081;-80
2022/09/08 15:24:37;;;;;;;0.13;0.13;;;27.50;55.30;;;;;;6192703;23;20056;-83
2022/09/08 15:27:21;;;;;;;;;;;27.60;55.60;;;;;;6193825;23;20496;-83
2022/09/08 15:29:58;;;;;;;;;;;27.70;55.30;;;;;;6189876;23;19932;-82
2022/09/08 15:32:30;;;;;;;;;;;27.60;55.90;;;;;;6197425;23;19924;-79
2022/09/08 15:35:26;;;;;;;;;;;27.40;55.00;;;;;;6184544;23;19916;-82
2022/09/08 15:37:56;;;;;;;;;;;27.50;55.40;;;;;;6177935;23;20329;-80
2022/09/08 15:40:24;;;;;;;;;;;27.50;55.70;;;;;;6189250;23;20000;-82
2022/09/08 15:43:10;;;;;;;;;;;27.30;55.80;;;;;;6186570;23;19991;-78
2022/09/08 15:45:36;;;;;;;;;;;27.30;54.80;;;;;;6185574;23;19943;-83
2022/09/08 15:48:06;;;;;;;;;;;27.20;56.00;;;;;;6190997;23;20398;-83
2022/09/08 15:50:36;;;;;;;;;;;27.10;56.00;;;;;;6193847;23;19994;-81
2022/09/08 15:53:28;;;;;;;;;;;27.00;56.20;;;;;;6197743;23;20261;-78
2022/09/08 15:56:11;;;;;;;;;;;27.10;56.70;;;;;;6181985;23;19931;-83
2022/09/08 15:58:58;;;;;;;;;;;27.10;57.00;;;;;;6192861;23;19923;-81
2022/09/08 16:01:33;;;;;;;;;;;27.10;57.10;;;;;;6188742;23;19996;-78
2022/09/08 16:04:03;;;;;;;;;;;27.20;58.40;;;;;;6195788;23;19930;-84
2022/09/08 16:06:49;;;;;;;;;;;27.10;58.10;;;;;;6198740;23;19945;-82
2022/09/08 16:09:17;;;;;;;;;;;27.10;58.30;;;;;;6192557;23;19967;-83
2022/09/08 16:12:06;;;;;;;;;;;27.10;57.90;;;;;;6185890;23;19939;-83
2022/09/08 16:14:41;;;;;;;;;;;27.00;55.70;;;;;;6190053;23;19942;-84
2022/09/08 16:17:14;;;;;;;;;;;27.10;56.50;;;;;;6185392;23;19916;-78
2022/09/08 16:19:42;;;;;;;;;;;27.50;55.80;;;;;;6198158;23;19916;-82
2022/09/08 16:22:14;;;;;;;;;;;27.60;55.10;;;;;;6191400;23;19980;-81
2022/09/08 16:24:45;;;;;;;;;;;27.80;55.10;;;;;;6193142;23;19996;-81
2022/09/08 16:27:18;;;;;;;;;;;27.90;53.70;;;;;;6189849;23;19916;-82
2022/09/08 16:30:00;;;;;;;;;;;27.80;54.60;;;;;;6189092;23;19955;-82
2022/09/08 16:32:34;;;;;;;;;;;27.60;54.30;;;;;;6200483;23;19916;-83
2022/09/08 16:35:19;;;;;;;;;;;27.50;55.10;;;;;;6198494;23;19936;-79
2022/09/08 16:37:46;;;;;;;;;;;27.60;55.40;;;;;;6188449;23;20392;-82
2022/09/08 16:40:15;;;;;;;;;;;27.80;55.10;;;;;;6184742;23;19958;-83
2022/09/08 16:42:55;;;;;;;;;;;28.00;55.00;;;;;;6190081;23;20901;-82
2022/09/08 16:45:27;;;;;;;;;;;28.10;55.10;;;;;;6191900;23;19917;-79
2022/09/08 16:48:17;;;;;;;;;;;28.00;56.00;;;;;;6196159;23;19920;-81
2022/09/08 16:51:00;;;;;;;;;;;28.00;56.50;;;;;;6197252;23;19920;-81
2022/09/08 16:53:45;;;;;;;;;;;27.80;56.40;;;;;;6189750;23;19916;-79
2022/09/08 16:56:35;;;;;;;;;;;27.70;56.40;;;;;;6187707;23;19936;-85
2022/09/08 16:59:17;;;;;;;;;;;27.60;56.70;;;;;;6182395;23;19917;-82
2022/09/08 17:01:51;;;;;;;;;;;27.50;57.40;;;;;;6194700;23;19948;-82
2022/09/08 17:04:21;;;;;;;;;;;27.50;57.80;;;;;;6196089;23;19916;-83
2022/09/08 17:06:54;;;;;;;;;;;27.40;57.90;;;;;;6189458;23;19907;-83
2022/09/08 17:09:30;;;;;;;;;;;27.40;58.10;;;;;;6192712;23;19917;-82
2022/09/08 17:12:17;;;;;;;;;;;27.30;58.90;;;;;;6195558;23;19916;-81
2022/09/08 17:14:45;;;;;;;;;;;27.30;59.60;;;;;;6189457;23;19974;-82
2022/09/08 17:17:11;;;;;;;;;;;27.00;61.70;;;;;;6188037;23;19993;-82
2022/09/08 17:19:47;;;;;;;;;;;27.00;63.40;;;;;;6197806;23;19916;-78
2022/09/08 17:22:33;;;;;;;;;;;26.80;62.90;;;;;;6197289;23;20333;-82
2022/09/08 17:25:02;;;;;;;;;;;26.70;64.20;;;;;;6187421;23;19916;-80
2022/09/08 17:27:30;;;;;;;;;;;26.50;65.50;;;;;;6196846;23;19904;-83
2022/09/08 17:30:03;;;;;;;;;;;26.30;65.90;;;;;;6197608;23;20365;-79
2022/09/08 17:32:48;;;;;;;;;;;26.10;65.50;;;;;;6184788;23;19920;-79
2022/09/08 17:35:15;;;;;;;;;;;26.00;66.00;;;;;;6197724;23;19923;-82
2022/09/08 17:37:50;;;;;;;;;;;26.00;66.70;;;;;;6195455;23;20226;-82
2022/09/08 17:40:32;;;;;;;;;;;25.90;67.60;;;;;;6202107;23;19942;-83
2022/09/08 17:43:05;;;;;;;;;;;25.80;68.20;;;;;;6196505;23;19900;-78
2022/09/08 17:45:36;;;;;;;;;;;25.80;68.70;;;;;;6188953;23;19952;-81
2022/09/08 17:48:06;;;;;;;;;;;25.70;68.90;;;;;;6184265;23;20292;-82
2022/09/08 17:50:38;;;;;;;;;;;25.60;69.10;;;;;;6188132;23;19995;-78
2022/09/08 17:53:24;;;;;;;;;;;25.50;68.70;;;;;;6196045;23;20293;-82
2022/09/08 17:55:59;;;;;;;;;;;25.40;69.10;;;;;;6189170;23;19943;-81
2022/09/08 17:58:35;;;;;;;;;;;25.30;68.70;;;;;;6191051;23;19916;-79
2022/09/08 18:01:11;;;;;;;;;;;25.20;69.60;;;;;;6184504;23;19982;-81
2022/09/08 18:03:38;;;;;;;;;;;25.20;69.80;;;;;;6189020;23;19916;-79
2022/09/08 18:06:16;;;;;;;;;;;25.10;70.10;;;;;;6191342;23;19920;-83
2022/09/08 18:08:44;;;;;;;;;;;25.00;70.60;;;;;;6195653;23;19968;-81
2022/09/08 18:11:14;;;;;;;;;;;24.90;71.20;;;;;;6188381;23;19916;-78
2022/09/08 18:13:44;;;;;;;;;;;24.80;71.40;;;;;;6193342;23;19907;-82
2022/09/08 18:16:37;;;;;;;;;;;24.70;71.50;;;;;;6185117;23;19940;-82
2022/09/08 18:19:23;;;;;;;;;;;24.60;73.70;;;;;;6197032;23;19920;-83
2022/09/08 18:22:04;;;;;;;;;;;24.40;74.40;;;;;;6189162;23;20014;-80
2022/09/08 18:24:32;;;;;;;;;;;24.30;74.60;;;;;;6185204;23;19916;-81
2022/09/08 18:27:17;;;;;;;;;;;24.20;75.70;;;;;;6183518;23;19919;-81
2022/09/08 18:30:05;;;;;;;;;;;24.10;77.40;;;;;;6189047;23;19924;-81
2022/09/08 18:32:51;;;;;;;;;;;23.90;78.30;;;;;;6190281;23;19954;-81
2022/09/08 18:35:24;;;;;;;;;;;23.70;78.50;;;;;;6182960;23;19916;-82
2022/09/08 18:37:56;;;;;;;;;;;23.60;78.80;;;;;;6183442;23;19922;-79
2022/09/08 18:40:27;;;;;;;;;;;23.50;78.80;;;;;;6189039;23;20318;-83
2022/09/08 18:43:01;;;;;;;;;;;23.40;78.70;;;;;;6189474;23;20341;-82
2022/09/08 18:45:27;;;;;;;;;;;23.40;78.60;;;;;;6187025;23;19916;-79
2022/09/08 18:47:59;;;;;;;;;;;23.40;79.00;;;;;;6191471;23;19960;-82
2022/09/08 18:50:42;;;;;;;;;;;23.30;80.50;;;;;;6182642;23;20332;-81
2022/09/08 18:53:10;;;;;;;;;;;23.30;80.00;;;;;;6187152;23;19947;-78
2022/09/08 18:55:40;;;;;;;;;;;23.20;80.70;;;;;;6201080;23;19940;-82
2022/09/08 18:58:06;;;;;;;;;;;23.10;80.80;;;;;;6201241;23;19916;-82
2022/09/08 19:00:35;;;;;;;;;;;23.10;81.80;;;;;;6190566;23;19999;-81
2022/09/08 19:03:17;;;;;;;;;;;23.00;81.90;;;;;;6187660;23;20333;-82
2022/09/08 19:05:56;;;;;;;;;;;22.90;81.70;;;;;;6177712;23;19923;-78
2022/09/08 19:08:29;;;;;;;;;;;22.90;82.50;;;;;;6195030;23;19987;-82
2022/09/08 19:11:11;;;;;;;;;;;22.90;82.10;;;;;;6183841;23;20356;-78
2022/09/08 19:13:38;;;;;;;;;;;22.80;81.50;;;;;;6182555;23;19999;-81
2022/09/08 19:16:05;;;;;;;;;;;22.80;81.90;;;;;;6183195;23;19950;-81
2022/09/08 19:18:43;;;;;;;;;;;22.80;82.30;;;;;;6187428;23;19923;-81
2022/09/08 19:21:12;;;;;;;;;;;22.80;83.70;;;;;;6196255;23;19920;-79
2022/09/08 19:23:40;;;;;;;;;;;22.70;83.10;;;;;;6183217;23;20238;-79
2022/09/08 19:26:16;;;;;;;;;;;22.60;83.20;;;;;;6188242;23;19916;-82
2022/09/08 19:28:45;;;;;;;;;;;22.60;83.70;;;;;;6187481;23;19900;-84
2022/09/08 19:31:13;;;;;;;;;;;22.50;84.30;;;;;;6185057;23;20307;-81
2022/09/08 19:33:40;;;;;;;;;;;22.50;83.20;;;;;;6193214;23;19930;-82
2022/09/08 19:36:10;;;;;;;;;;;22.50;82.70;;;;;;6192191;23;20349;-78
2022/09/08 19:38:59;;;;;;;;;;;22.50;82.70;;;;;;6187290;23;19916;-83
2022/09/08 19:41:27;;;;;;;;;;;22.40;82.60;;;;;;6188910;23;19943;-82
2022/09/08 19:44:03;;;;;;;;;;;22.40;82.30;;;;;;6192181;23;20249;-82
2022/09/08 19:46:33;;;;;;;;;;;22.40;81.80;;;;;;6184554;23;19987;-82
2022/09/08 19:49:03;;;;;;;;;;;22.30;81.10;;;;;;6190865;23;19923;-82
2022/09/08 19:51:46;;;;;;;;;;;22.30;82.40;;;;;;6182398;23;19952;-78
2022/09/08 19:54:28;;;;;;;;;;;22.30;80.90;;;;;;6183691;23;20333;-78
2022/09/08 19:56:55;;;;;;;;;;;22.30;80.30;;;;;;6172967;23;19920;-78
2022/09/08 19:59:28;;;;;;;;;;;22.20;78.90;;;;;;6187655;23;19916;-81
2022/09/08 20:01:57;;;;;;;;;;;22.20;78.10;;;;;;6195192;23;19966;-78
2022/09/08 20:04:43;;;;;;;;;;;22.20;77.50;;;;;;6190172;23;19924;-82
2022/09/08 20:07:17;;;;;;;;;;;22.20;77.20;;;;;;6188264;23;19900;-82
2022/09/08 20:09:46;;;;;;;;;;;22.20;77.30;;;;;;6197976;23;20304;-80
2022/09/08 20:12:15;;;;;;;;;;;22.20;78.10;;;;;;6184920;23;19920;-81
2022/09/08 20:14:42;;;;;;;;;;;22.20;78.60;;;;;;6191299;23;19916;-82
2022/09/08 20:17:19;;;;;;;;;;;22.20;79.20;;;;;;6200612;23;19924;-83
2022/09/08 20:19:46;;;;;;;;;;;22.10;78.90;;;;;;6198316;23;19947;-80
2022/09/08 20:22:13;;;;;;;;;;;22.10;78.90;;;;;;6188931;23;20375;-79
2022/09/08 20:24:41;;;;;;;;;;;22.00;80.00;;;;;;6195692;23;19924;-80
2022/09/08 20:27:13;;;;;;;;;;;21.90;81.00;;;;;;6193652;23;19915;-81
2022/09/08 20:29:51;;;;;;;;;;;21.90;79.90;;;;;;6193465;23;19908;-81
2022/09/08 20:32:27;;;;;;;;;;;21.90;80.80;;;;;;6189890;23;19939;-78
2022/09/08 20:35:18;;;;;;;;;;;21.80;81.50;;;;;;6195353;23;19936;-82
2022/09/08 20:37:54;;;;;;;;;;;21.80;80.40;;;;;;6184669;23;20003;-82
2022/09/08 20:40:23;;;;;;;;;;;21.70;78.30;;;;;;6191785;23;19939;-82
2022/09/08 20:42:51;;;;;;;;;;;21.80;77.20;;;;;;6190636;23;19987;-81
2022/09/08 20:45:33;;;;;;;;;;;21.80;76.50;;;;;;6197355;23;19944;-82
2022/09/08 20:48:05;;;;;;;;;;;21.80;75.50;;;;;;6194013;23;20436;-82
2022/09/08 20:50:34;;;;;;;;;;;21.90;75.40;;;;;;6187117;23;19923;-82
2022/09/08 20:53:20;;;;;;;;;;;21.90;75.10;;;;;;6192258;23;19943;-82
2022/09/08 20:55:49;;;;;;;;;;;21.90;75.00;;;;;;6185298;23;19990;-84
2022/09/08 20:58:16;;;;;;;;;;;21.90;75.10;;;;;;6183450;23;19943;-79
2022/09/08 21:00:47;;;;;;;;;;;21.90;75.00;;;;;;6188407;23;20312;-82
2022/09/08 21:03:27;;;;;;;;;;;21.90;74.40;;;;;;6190735;23;19920;-81
2022/09/08 21:06:13;;;;;;;;;;;21.90;73.10;;;;;;6197376;23;20325;-80
2022/09/08 21:08:44;;;;;;;;;;;21.90;72.60;;;;;;6186458;23;20232;-80
2022/09/08 21:11:19;;;;;;;;;;;22.00;72.10;;;;;;6190008;23;19943;-82
2022/09/08 21:13:54;;;;;;;;;;;22.00;72.40;;;;;;6185897;23;20237;-82
2022/09/08 21:16:22;;;;;;;;;;;22.00;72.70;;;;;;6195939;23;19995;-79
2022/09/08 21:18:50;;;;;;;;;;;21.90;73.00;;;;;;6183409;23;20310;-79
2022/09/08 21:21:23;;;;;;;;;;;21.90;73.40;;;;;;6186163;23;19939;-78
2022/09/08 21:23:53;;;;;;;;;;;21.90;74.00;;;;;;6176300;23;19920;-82
2022/09/08 21:26:26;;;;;;;;;;;21.80;74.40;;;;;;6183742;23;19916;-80
2022/09/08 21:28:59;;;;;;;;;;;21.70;74.10;;;;;;6175609;23;20367;-77
2022/09/08 21:31:43;;;;;;;;;;;21.70;73.20;;;;;;6189949;23;19920;-79
2022/09/08 21:34:26;;;;;;;;;;;21.70;73.10;;;;;;6192226;23;19943;-80
2022/09/08 21:36:53;;;;;;;;;;;21.70;72.70;;;;;;6196911;23;19916;-78
2022/09/08 21:39:21;;;;;;;;;;;21.70;72.80;;;;;;6194535;23;19944;-82
2022/09/08 21:41:48;;;;;;;;;;;21.70;72.50;;;;;;6187094;23;19940;-81
2022/09/08 21:44:18;;;;;;;;;;;21.70;72.40;;;;;;6185735;23;19920;-79
2022/09/08 21:46:49;;;;;;;;;;;21.70;71.40;;;;;;6184593;23;19995;-78
2022/09/08 21:49:21;;;;;;;;;;;21.70;71.30;;;;;;6197742;23;19940;-81
2022/09/08 21:51:58;;;;;;;;;;;21.70;70.80;;;;;;6188547;23;19923;-78
2022/09/08 21:54:32;;;;;;;;;;;21.70;70.40;;;;;;6175174;23;19920;-82
2022/09/08 21:57:18;;;;;;;;;;;21.70;69.70;;;;;;6187064;23;19955;-79
2022/09/08 22:00:19;;;;;;;;;;;21.70;69.60;;;;;;6188501;23;19924;-82
2022/09/08 22:02:49;;;;;;;;;;;21.80;68.70;;;;;;6175969;23;19967;-81
2022/09/08 22:05:26;;;;;;;;;;;21.70;69.10;;;;;;6190595;23;19920;-78
2022/09/08 22:08:02;;;;;;;;;;;21.70;69.10;;;;;;6173562;23;19998;-80
2022/09/08 22:10:29;;;;;;;;;;;21.70;68.30;;;;;;6185616;23;19944;-78
2022/09/08 22:13:00;;;;;;;;;;;21.70;67.80;;;;;;6187723;23;19916;-80
2022/09/08 22:15:34;;;;;;;;;;;21.70;67.80;;;;;;6184051;23;19939;-80
2022/09/08 22:18:14;;;;;;;;;;;21.70;67.70;;;;;;6189802;23;19916;-81
2022/09/08 22:20:48;;;;;;;;;;;21.70;67.50;;;;;;6185200;23;19924;-81
2022/09/08 22:23:30;;;;;;;;;;;21.70;67.50;;;;;;6192282;23;19916;-80
2022/09/08 22:26:08;;;;;;;;;;;21.70;67.20;;;;;;6183544;23;19939;-82
2022/09/08 22:28:45;;;;;;;;;;;21.70;66.90;;;;;;6185160;23;19923;-80
2022/09/08 22:31:25;;;;;;;;;;;21.60;66.30;;;;;;6188183;23;20373;-77
2022/09/08 22:34:13;;;;;;;;;;;21.60;66.70;;;;;;6186817;23;19954;-80
2022/09/08 22:36:50;;;;;;;;;;;21.60;66.40;;;;;;6183833;23;20343;-81
2022/09/08 22:39:17;;;;;;;;;;;21.60;66.30;;;;;;6181324;23;19955;-81
2022/09/08 22:41:49;;;;;;;;;;;21.70;66.40;;;;;;6187645;23;19900;-78
2022/09/08 22:44:26;;;;;;;;;;;21.70;66.70;;;;;;6188363;23;19916;-81
2022/09/08 22:46:58;;;;;;;;;;;21.60;66.60;;;;;;6187858;23;20056;-82
2022/09/08 22:49:31;;;;;;;;;;;21.60;66.80;;;;;;6185276;23;19967;-81
2022/09/08 22:52:10;;;;;;;;;;;21.60;66.80;;;;;;6194394;23;19947;-81
2022/09/08 22:54:49;;;;;;;;;;;21.60;66.60;;;;;;6191860;23;19920;-81
2022/09/08 22:57:45;;;;;;;;;;;21.50;65.60;;;;;;6196703;23;19923;-80
2022/09/08 23:00:21;;;;;;;;;;;21.60;65.00;;;;;;6181863;23;19915;-77
2022/09/08 23:03:07;;;;;;;;;;;21.70;65.20;;;;;;6193103;23;19947;-78
2022/09/08 23:05:52;;;;;;;;;;;21.70;65.30;;;;;;6186473;23;19916;-80
2022/09/08 23:08:27;;;;;;;;;;;21.70;64.50;;;;;;6183533;23;19920;-81
2022/09/08 23:10:59;;;;;;;;;;;21.70;64.90;;;;;;6191847;23;19987;-78
2022/09/08 23:13:31;;;;;;;;;;;21.70;65.90;;;;;;6186005;23;19916;-80
2022/09/08 23:16:07;;;;;;;;;;;21.60;65.80;;;;;;6182559;23;19920;-79
2022/09/08 23:18:34;;;;;;;;;;;21.60;66.20;;;;;;6175280;23;20302;-80
2022/09/08 23:21:16;;;;;;;;;;;21.50;66.70;;;;;;6183279;23;19962;-78
2022/09/08 23:23:52;;;;;;;;;;;21.50;67.30;;;;;;6174636;23;20174;-81
2022/09/08 23:26:21;;;;;;;;;;;21.40;67.50;;;;;;6187719;23;19996;-81
2022/09/08 23:28:57;;;;;;;;;;;21.40;65.80;;;;;;6183335;23;19917;-81
2022/09/08 23:31:41;;;;;;;;;;;21.40;66.00;;;;;;6189517;23;19923;-81
2022/09/08 23:34:24;;;;;;;;;;;21.30;66.00;;;;;;6184077;23;19916;-79
2022/09/08 23:36:55;;;;;;;;;;;21.30;64.60;;;;;;6187952;23;19932;-81
2022/09/08 23:39:21;;;;;;;;;;;21.40;64.00;;;;;;6188489;23;19916;-81
2022/09/08 23:41:48;;;;;;;;;;;21.40;63.80;;;;;;6192321;23;19991;-78
2022/09/08 23:44:20;;;;;;;;;;;21.40;63.80;;;;;;6185150;23;19991;-78
2022/09/08 23:46:50;;;;;;;;;;;21.40;64.10;;;;;;6190878;23;21099;-81
2022/09/08 23:49:17;;;;;;;;;;;21.40;64.70;;;;;;6188934;23;19922;-81
2022/09/08 23:51:47;;;;;;;;;;;21.30;65.30;;;;;;6189323;23;19947;-79
2022/09/08 23:54:15;;;;;;;;;;;21.20;64.40;;;;;;6194988;23;19923;-81
2022/09/08 23:56:44;;;;;;;;;;;21.20;64.80;;;;;;6187519;23;19998;-80
2022/09/08 23:59:11;;;;;;;;;;;21.10;65.10;;;;;;6187871;23;19984;-82
